Terminal Aerodrome Forecast
Issued by NWS

Home | Current Version | Previous Version | Text Only | Print | Product List | Glossary On
Versions: 1 2 3 4 5 6 7 8 9 10 11 12 13 14 15 16 17 18
471
FTUS42 KFFC 181727
TAFFTY
TAF
KFTY 181727Z 1818/1918 28005KT P6SM SCT007 BKN070
     FM181900 28005KT P6SM VCSH SCT008 BKN070
     FM190000 00000KT P6SM SCT070 BKN250
     FM190300 00000KT 3SM BR BKN250
     FM190900 00000KT 1SM BR SCT002 BKN250
     FM191500 28003KT 5SM BR SCT005 BKN120=

USA.gov is the U.S. government's official web portal to all federal, state and local government web resources and services.